createdAt,value
2022-11-18T00:01:13.549Z,5.90
2022-11-18T00:03:41.207Z,6.77
2022-11-18T00:06:11.130Z,3.17
2022-11-18T00:08:37.585Z,2.90
2022-11-18T00:11:08.770Z,4.80
2022-11-18T00:13:55.304Z,4.17
2022-11-18T00:16:22.340Z,8.80
2022-11-18T00:18:48.750Z,3.77
2022-11-18T00:21:15.185Z,5.77
2022-11-18T00:23:41.729Z,9.03
2022-11-18T00:26:14.685Z,3.73
2022-11-18T00:28:41.613Z,4.67
2022-11-18T00:31:13.313Z,5.50
2022-11-18T00:33:40.717Z,8.30
2022-11-18T00:36:09.678Z,7.90
2022-11-18T00:38:36.668Z,4.07
2022-11-18T00:41:12.102Z,4.10
2022-11-18T00:43:39.394Z,8.00
2022-11-18T00:46:07.571Z,8.23
2022-11-18T00:48:34.345Z,11.20
2022-11-18T00:51:15.204Z,14.30
2022-11-18T00:53:42.090Z,6.83
2022-11-18T00:56:08.925Z,7.23
2022-11-18T00:58:36.280Z,6.30
2022-11-18T01:01:03.459Z,5.63
2022-11-18T01:03:30.179Z,6.67
2022-11-18T01:05:56.889Z,7.27
2022-11-18T01:08:23.521Z,9.80
2022-11-18T01:10:50.740Z,10.83
2022-11-18T01:13:19.995Z,12.83
2022-11-18T01:15:55.268Z,11.27
2022-11-18T01:18:27.521Z,9.80
2022-11-18T01:20:54.061Z,6.67
2022-11-18T01:23:20.960Z,5.03
2022-11-18T01:25:49.359Z,5.20
2022-11-18T01:28:22.983Z,4.30
2022-11-18T01:30:50.285Z,6.67
2022-11-18T01:33:16.727Z,5.50
2022-11-18T01:35:43.907Z,3.90
2022-11-18T01:38:12.449Z,4.00
2022-11-18T01:40:39.977Z,4.23
2022-11-18T01:43:13.485Z,4.57
2022-11-18T01:45:41.299Z,7.13
2022-11-18T01:48:13.590Z,5.27
2022-11-18T01:50:46.657Z,4.10
2022-11-18T01:53:19.849Z,4.53
2022-11-18T01:55:50.894Z,5.23
2022-11-18T01:58:51.755Z,4.97
2022-11-18T02:01:18.771Z,6.77
2022-11-18T02:03:46.734Z,8.23
2022-11-18T02:06:13.534Z,11.70
2022-11-18T02:08:41.666Z,7.37
2022-11-18T02:11:33.676Z,10.23
2022-11-18T02:14:03.642Z,7.63
2022-11-18T02:16:59.318Z,12.73
2022-11-18T02:19:44.328Z,7.43
2022-11-18T02:22:22.977Z,8.43
2022-11-18T02:24:52.418Z,7.53
2022-11-18T02:27:28.365Z,7.10
2022-11-18T02:30:09.966Z,5.80
2022-11-18T02:33:03.054Z,7.10
2022-11-18T02:35:44.386Z,5.80
2022-11-18T02:38:35.650Z,8.03
2022-11-18T02:41:06.736Z,12.10
2022-11-18T02:43:42.546Z,9.97
2022-11-18T02:46:13.657Z,8.43
2022-11-18T02:48:47.017Z,11.40
2022-11-18T02:51:17.931Z,13.63
2022-11-18T02:53:46.597Z,15.03
2022-11-18T02:56:15.415Z,12.43
2022-11-18T02:58:41.831Z,12.73
2022-11-18T03:01:18.639Z,14.57
2022-11-18T03:03:45.142Z,15.73
2022-11-18T03:06:27.620Z,14.43
2022-11-18T03:09:15.156Z,12.83
2022-11-18T03:11:48.956Z,10.83
2022-11-18T03:14:36.795Z,10.67
2022-11-18T03:17:29.599Z,6.73
2022-11-18T03:20:08.111Z,8.83
2022-11-18T03:22:44.321Z,8.83
2022-11-18T03:25:20.435Z,8.57
2022-11-18T03:27:54.770Z,7.03
2022-11-18T03:30:24.342Z,9.43
2022-11-18T03:33:02.007Z,10.57
2022-11-18T03:35:32.963Z,11.50
2022-11-18T03:38:13.041Z,7.37
2022-11-18T03:40:46.354Z,3.57
2022-11-18T03:43:17.915Z,2.53
2022-11-18T03:45:50.508Z,4.30
2022-11-18T03:48:19.127Z,2.03
2022-11-18T03:50:51.140Z,2.67
2022-11-18T03:53:20.729Z,3.17
2022-11-18T03:55:51.560Z,2.73
2022-11-18T03:58:27.809Z,1.60
2022-11-18T04:01:01.482Z,3.00
2022-11-18T04:03:27.959Z,0.97
2022-11-18T04:06:03.152Z,1.13
2022-11-18T04:08:36.960Z,3.20
2022-11-18T04:11:32.929Z,0.97
2022-11-18T04:14:00.423Z,1.00
2022-11-18T04:16:26.983Z,0.70
2022-11-18T04:18:53.421Z,2.87
2022-11-18T04:21:19.786Z,1.07
2022-11-18T04:23:46.317Z,0.60
2022-11-18T04:26:12.763Z,1.40
2022-11-18T04:28:39.292Z,1.23
2022-11-18T04:31:05.752Z,1.57
2022-11-18T04:33:32.139Z,1.30
2022-11-18T04:35:58.528Z,0.50
2022-11-18T04:38:24.974Z,1.23
2022-11-18T04:40:51.424Z,0.93
2022-11-18T04:43:17.813Z,1.03
2022-11-18T04:45:44.298Z,3.60
2022-11-18T04:48:10.722Z,1.87
2022-11-18T04:50:37.116Z,1.03
2022-11-18T04:53:03.528Z,1.63
2022-11-18T04:55:29.956Z,1.60
2022-11-18T04:57:56.347Z,0.20
2022-11-18T05:00:23.009Z,0.43
2022-11-18T05:02:49.386Z,0.93
2022-11-18T05:05:15.794Z,0.43
2022-11-18T05:07:42.279Z,2.03
2022-11-18T05:10:09.169Z,1.57
2022-11-18T05:12:51.068Z,1.40
2022-11-18T05:15:19.672Z,1.10
2022-11-18T05:17:46.675Z,0.67
2022-11-18T05:20:13.874Z,0.40
2022-11-18T05:22:40.817Z,0.53
2022-11-18T05:25:08.374Z,1.33
2022-11-18T05:27:34.849Z,0.87
2022-11-18T05:30:01.348Z,1.43
2022-11-18T05:32:27.798Z,0.97
2022-11-18T05:34:54.228Z,0.83
2022-11-18T05:37:20.632Z,0.10
2022-11-18T05:39:47.026Z,0.10
2022-11-18T05:42:32.106Z,0.20
2022-11-18T05:44:59.137Z,0.20
2022-11-18T05:47:27.004Z,1.50
2022-11-18T05:49:53.448Z,1.43
2022-11-18T05:52:19.998Z,2.00
2022-11-18T05:54:49.851Z,2.30
2022-11-18T05:57:16.292Z,2.03
2022-11-18T05:59:42.733Z,2.03
2022-11-18T06:02:16.698Z,0.70
2022-11-18T06:04:54.987Z,1.20
2022-11-18T06:07:27.878Z,1.27
2022-11-18T06:10:04.727Z,1.00
2022-11-18T06:12:37.043Z,3.50
2022-11-18T06:15:12.510Z,1.43
2022-11-18T06:17:48.157Z,2.20
2022-11-18T06:20:18.553Z,8.63
2022-11-18T06:22:46.745Z,4.33
2022-11-18T06:25:14.318Z,1.17
2022-11-18T06:27:41.880Z,2.60
2022-11-18T06:30:09.079Z,3.70
2022-11-18T06:32:35.555Z,1.93
2022-11-18T06:35:01.944Z,1.63
2022-11-18T06:37:28.399Z,0.70
2022-11-18T06:39:54.949Z,2.70
2022-11-18T06:42:39.846Z,1.27
2022-11-18T06:45:06.736Z,0.90
2022-11-18T06:47:33.280Z,2.47
2022-11-18T06:49:59.754Z,1.33
2022-11-18T06:52:26.138Z,1.30
2022-11-18T06:54:52.664Z,3.37
2022-11-18T06:57:19.048Z,4.10
2022-11-18T06:59:45.484Z,4.77
2022-11-18T07:02:11.917Z,5.37
2022-11-18T07:04:41.286Z,3.60
2022-11-18T07:07:08.282Z,2.80
2022-11-18T07:09:36.069Z,4.60
2022-11-18T07:12:03.630Z,5.23
2022-11-18T07:14:30.867Z,6.60
2022-11-18T07:16:57.419Z,5.30
2022-11-18T07:19:24.019Z,5.17
2022-11-18T07:21:50.536Z,5.80
2022-11-18T07:24:17.173Z,4.67
2022-11-18T07:26:43.923Z,5.30
2022-11-18T07:29:10.777Z,3.43
2022-11-18T07:31:39.114Z,2.20
2022-11-18T07:34:06.476Z,2.67
2022-11-18T07:36:35.858Z,4.23
2022-11-18T07:39:05.723Z,3.53
2022-11-18T07:41:33.394Z,3.57
2022-11-18T07:44:02.016Z,4.67
2022-11-18T07:46:36.551Z,4.30
2022-11-18T07:49:05.617Z,2.13
2022-11-18T07:51:35.290Z,2.70
2022-11-18T07:54:05.742Z,1.50
2022-11-18T07:56:32.190Z,3.57
2022-11-18T07:58:58.638Z,1.87
2022-11-18T08:01:30.774Z,4.00
2022-11-18T08:04:03.734Z,3.53
2022-11-18T08:06:32.845Z,1.13
2022-11-18T08:08:59.293Z,1.27
2022-11-18T08:11:25.736Z,2.40
2022-11-18T08:13:52.192Z,2.20
2022-11-18T08:16:21.237Z,4.77
2022-11-18T08:18:48.334Z,5.67
2022-11-18T08:21:16.382Z,1.83
2022-11-18T08:23:43.324Z,1.80
2022-11-18T08:26:16.131Z,2.77
2022-11-18T08:28:43.747Z,2.20
2022-11-18T08:31:19.253Z,6.03
2022-11-18T08:33:46.072Z,6.03
2022-11-18T08:36:18.221Z,8.63
2022-11-18T08:38:45.033Z,6.57
2022-11-18T08:41:16.443Z,5.83
2022-11-18T08:43:42.892Z,2.63
2022-11-18T08:46:09.300Z,4.57
2022-11-18T08:48:35.889Z,3.33
2022-11-18T08:51:02.843Z,2.73
2022-11-18T08:53:29.304Z,2.37
2022-11-18T08:55:57.586Z,3.47
2022-11-18T08:58:24.937Z,2.57
2022-11-18T09:00:51.598Z,3.80
2022-11-18T09:03:18.207Z,3.87
2022-11-18T09:05:45.143Z,2.30
2022-11-18T09:08:11.890Z,3.57
2022-11-18T09:10:38.710Z,3.80
2022-11-18T09:13:25.271Z,5.97
2022-11-18T09:15:51.590Z,10.13
2022-11-18T09:18:18.216Z,18.00
2022-11-18T09:20:56.678Z,7.27
2022-11-18T09:23:23.699Z,3.47
2022-11-18T09:25:57.801Z,5.47
2022-11-18T09:28:24.422Z,4.63
2022-11-18T09:30:50.894Z,2.73
2022-11-18T09:33:20.507Z,3.43
2022-11-18T09:35:47.426Z,4.07
2022-11-18T09:38:14.239Z,3.47
2022-11-18T09:40:55.876Z,2.97
2022-11-18T09:43:38.277Z,5.00
2022-11-18T09:46:20.688Z,3.80
2022-11-18T09:49:08.064Z,4.50
2022-11-18T09:51:40.249Z,4.50
2022-11-18T09:54:36.669Z,2.80
2022-11-18T09:57:13.757Z,2.77
2022-11-18T09:59:40.996Z,7.67
2022-11-18T10:02:13.562Z,12.30
2022-11-18T10:04:40.408Z,4.83
2022-11-18T10:07:16.489Z,3.03
2022-11-18T10:09:45.059Z,3.60
2022-11-18T10:12:20.366Z,3.93
2022-11-18T10:15:15.867Z,3.03
2022-11-18T10:18:26.421Z,3.60
2022-11-18T10:21:25.392Z,3.67
2022-11-18T10:23:59.168Z,1.93
2022-11-18T10:26:34.895Z,2.17
2022-11-18T10:29:02.030Z,3.40
2022-11-18T10:31:28.777Z,1.20
2022-11-18T10:34:01.971Z,2.33
2022-11-18T10:36:31.522Z,1.43
2022-11-18T10:39:13.987Z,2.17
2022-11-18T10:41:49.341Z,1.63
2022-11-18T10:44:37.157Z,1.47
2022-11-18T10:47:23.154Z,2.47
2022-11-18T10:49:51.258Z,2.27
2022-11-18T10:52:18.095Z,1.30
2022-11-18T10:54:45.052Z,1.23
2022-11-18T10:57:21.745Z,1.10
2022-11-18T10:59:51.918Z,1.90
2022-11-18T11:02:39.682Z,5.03
2022-11-18T11:05:35.556Z,14.03
2022-11-18T11:08:35.689Z,4.00
2022-11-18T11:11:04.005Z,2.93
2022-11-18T11:13:32.300Z,2.20
2022-11-18T11:16:03.356Z,1.43
2022-11-18T11:18:43.313Z,1.87
2022-11-18T11:21:15.120Z,2.43
2022-11-18T11:23:42.485Z,2.07
2022-11-18T11:29:45.860Z,1.60
2022-11-18T11:32:18.500Z,1.20
2022-11-18T11:35:13.164Z,3.60
2022-11-18T11:37:55.880Z,1.10
2022-11-18T11:40:34.938Z,1.70
2022-11-18T11:43:26.389Z,0.80
2022-11-18T11:46:16.901Z,2.37
2022-11-18T11:49:00.029Z,1.50
2022-11-18T11:51:42.453Z,3.23
2022-11-18T11:54:49.818Z,1.63
2022-11-18T11:57:41.939Z,2.43
2022-11-18T12:00:14.053Z,3.90
2022-11-18T12:03:11.520Z,2.40
2022-11-18T12:05:40.520Z,3.77
2022-11-18T12:08:14.633Z,3.63
2022-11-18T12:11:09.160Z,4.87
2022-11-18T12:14:02.820Z,7.33
2022-11-18T12:16:41.460Z,3.70
2022-11-18T12:19:13.033Z,3.63
2022-11-18T12:21:42.980Z,2.60
2022-11-18T12:24:18.317Z,3.53
2022-11-18T12:26:46.625Z,4.63
2022-11-18T12:29:19.363Z,3.40
2022-11-18T12:31:46.961Z,5.50
2022-11-18T12:34:31.270Z,5.30
2022-11-18T12:37:23.369Z,5.27
2022-11-18T12:39:59.297Z,3.10
2022-11-18T12:43:02.774Z,3.63
2022-11-18T12:45:41.371Z,7.73
2022-11-18T12:48:31.116Z,4.20
2022-11-18T12:51:00.663Z,6.60
2022-11-18T12:53:39.788Z,6.27
2022-11-18T12:56:19.041Z,3.77
2022-11-18T12:58:56.550Z,5.90
2022-11-18T13:01:26.629Z,5.17
2022-11-18T13:04:05.505Z,2.50
2022-11-18T13:06:34.291Z,6.43
2022-11-18T13:09:03.999Z,2.73
2022-11-18T13:11:47.223Z,3.63
2022-11-18T13:14:51.723Z,3.90
2022-11-18T13:17:43.162Z,5.43
2022-11-18T13:20:35.813Z,3.30
2022-11-18T13:23:44.229Z,5.53
2022-11-18T13:26:23.638Z,3.93
2022-11-18T13:29:09.075Z,5.23
2022-11-18T13:31:45.060Z,3.03
2022-11-18T13:34:18.569Z,9.73
2022-11-18T13:36:47.218Z,5.53
2022-11-18T13:39:28.755Z,4.63
2022-11-18T13:42:14.167Z,5.83
2022-11-18T13:44:56.449Z,5.43
2022-11-18T13:47:36.776Z,5.13
2022-11-18T13:50:23.019Z,3.50
2022-11-18T13:53:26.127Z,4.20
2022-11-18T13:55:56.932Z,6.57
2022-11-18T14:01:38.886Z,5.57
2022-11-18T14:04:07.313Z,6.30
2022-11-18T14:06:38.513Z,4.47
2022-11-18T14:09:13.803Z,5.03
2022-11-18T14:11:42.745Z,9.03
2022-11-18T14:14:27.067Z,4.67
2022-11-18T14:16:53.647Z,2.93
2022-11-18T14:19:31.448Z,3.27
2022-11-18T14:22:14.426Z,4.67
2022-11-18T14:24:42.075Z,3.83
2022-11-18T14:27:28.438Z,1.30
2022-11-18T14:29:55.561Z,5.43
2022-11-18T14:32:23.345Z,3.13
2022-11-18T14:34:59.859Z,6.67
2022-11-18T14:37:26.745Z,4.27
2022-11-18T14:39:57.764Z,3.50
2022-11-18T14:42:24.733Z,3.90
2022-11-18T14:44:51.262Z,5.63
2022-11-18T14:47:25.203Z,3.50
2022-11-18T14:49:51.817Z,5.40
2022-11-18T14:52:18.475Z,6.83
2022-11-18T14:54:44.937Z,2.27
2022-11-18T14:57:16.326Z,5.23
2022-11-18T14:59:43.448Z,5.57
2022-11-18T15:02:14.625Z,3.40
2022-11-18T15:04:41.250Z,6.30
2022-11-18T15:07:12.318Z,3.13
2022-11-18T15:09:38.889Z,6.43
2022-11-18T15:12:05.886Z,5.27
2022-11-18T15:14:32.299Z,5.30
2022-11-18T15:16:58.682Z,4.40
2022-11-18T15:19:25.201Z,4.07
2022-11-18T15:21:51.656Z,6.97
2022-11-18T15:24:18.458Z,5.20
2022-11-18T15:26:46.909Z,3.57
2022-11-18T15:29:22.065Z,5.83
2022-11-18T15:31:49.429Z,5.33
2022-11-18T15:34:18.081Z,11.57
2022-11-18T15:36:44.770Z,7.20
2022-11-18T15:39:11.773Z,9.03
2022-11-18T15:41:40.548Z,9.27
2022-11-18T15:44:09.592Z,17.00
2022-11-18T15:46:36.013Z,19.97
2022-11-18T15:49:02.512Z,17.53
2022-11-18T15:51:30.295Z,15.33
2022-11-18T15:53:56.866Z,11.40
2022-11-18T15:56:26.164Z,9.60
2022-11-18T15:59:05.386Z,4.07
2022-11-18T16:01:37.295Z,7.17
2022-11-18T16:04:05.373Z,10.10
2022-11-18T16:06:32.406Z,8.40
2022-11-18T16:09:00.444Z,10.90
2022-11-18T16:11:47.678Z,11.93
2022-11-18T16:14:16.555Z,8.10
2022-11-18T16:16:44.791Z,6.17
2022-11-18T16:19:13.447Z,6.70
2022-11-18T16:21:41.870Z,10.17
2022-11-18T16:24:12.008Z,9.03
2022-11-18T16:26:38.694Z,8.80
2022-11-18T16:29:06.620Z,8.17
2022-11-18T16:31:40.664Z,9.30
2022-11-18T16:34:24.898Z,6.63
2022-11-18T16:36:54.596Z,9.23
2022-11-18T16:39:24.853Z,6.67
2022-11-18T16:41:53.054Z,9.30
2022-11-18T16:44:19.602Z,9.83
2022-11-18T16:46:48.448Z,5.53
2022-11-18T16:49:17.032Z,10.10
2022-11-18T16:51:46.287Z,12.23
2022-11-18T16:54:20.158Z,15.57
2022-11-18T16:56:47.819Z,20.43
2022-11-18T16:59:17.779Z,12.43
2022-11-18T17:01:44.796Z,9.83
2022-11-18T17:04:11.828Z,9.87
2022-11-18T17:06:39.253Z,6.87
2022-11-18T17:09:06.089Z,5.87
2022-11-18T17:11:32.924Z,8.93
2022-11-18T17:13:59.437Z,12.13
2022-11-18T17:16:26.774Z,10.50
2022-11-18T17:18:57.847Z,11.87
2022-11-18T17:21:26.597Z,14.23
2022-11-18T17:23:53.419Z,13.83
2022-11-18T17:26:22.159Z,10.43
2022-11-18T17:28:48.705Z,10.27
2022-11-18T17:31:17.623Z,11.93
2022-11-18T17:33:44.650Z,9.07
2022-11-18T17:36:17.594Z,7.10
2022-11-18T17:38:46.577Z,8.10
2022-11-18T17:41:34.201Z,7.57
2022-11-18T17:44:05.495Z,9.60
2022-11-18T17:46:37.796Z,6.43
2022-11-18T17:49:07.460Z,6.90
2022-11-18T17:51:33.946Z,6.37
2022-11-18T17:54:00.411Z,5.57
2022-11-18T17:56:26.902Z,7.73
2022-11-18T17:58:53.373Z,7.23
2022-11-18T18:01:21.889Z,5.70
2022-11-18T18:03:48.790Z,9.57
2022-11-18T18:06:15.392Z,6.13
2022-11-18T18:08:48.130Z,6.67
2022-11-18T18:11:18.706Z,5.03
2022-11-18T18:14:04.614Z,5.27
2022-11-18T18:16:33.367Z,5.37
2022-11-18T18:19:01.956Z,7.73
2022-11-18T18:21:28.925Z,5.80
2022-11-18T18:23:55.852Z,8.87
2022-11-18T18:26:26.619Z,6.73
2022-11-18T18:28:56.347Z,6.20
2022-11-18T18:31:22.912Z,6.90
2022-11-18T18:33:49.436Z,6.77
2022-11-18T18:36:18.337Z,4.13
2022-11-18T18:38:45.825Z,5.77
2022-11-18T18:41:18.351Z,6.20
2022-11-18T18:43:45.975Z,5.30
2022-11-18T18:46:31.348Z,4.57
2022-11-18T18:49:13.251Z,6.60
2022-11-18T18:51:41.590Z,6.40
2022-11-18T18:54:11.374Z,7.67
2022-11-18T18:56:40.828Z,8.57
2022-11-18T18:59:08.456Z,7.47
2022-11-18T19:01:35.152Z,6.63
2022-11-18T19:04:05.353Z,9.67
2022-11-18T19:09:22.667Z,8.60
2022-11-18T19:12:07.632Z,10.93
2022-11-18T19:14:35.319Z,26.40
2022-11-18T19:17:06.631Z,12.60
2022-11-18T19:19:55.635Z,29.33
2022-11-18T19:22:22.232Z,23.80
2022-11-18T19:24:50.439Z,19.30
2022-11-18T19:27:18.208Z,22.67
2022-11-18T19:29:44.846Z,23.00
2022-11-18T19:32:11.485Z,18.60
2022-11-18T19:34:37.949Z,18.97
2022-11-18T19:37:04.545Z,14.43
2022-11-18T19:39:31.137Z,10.40
2022-11-18T19:41:57.648Z,9.17
2022-11-18T19:44:24.148Z,9.53
2022-11-18T19:46:50.571Z,8.50
2022-11-18T19:49:17.486Z,8.67
2022-11-18T19:51:44.000Z,8.80
2022-11-18T19:54:10.524Z,9.07
2022-11-18T19:56:36.973Z,12.80
2022-11-18T19:59:04.510Z,11.47
2022-11-18T20:01:31.671Z,8.97
2022-11-18T20:04:01.706Z,7.73
2022-11-18T20:06:28.574Z,9.73
2022-11-18T20:08:55.937Z,8.20
2022-11-18T20:11:23.297Z,8.70
2022-11-18T20:13:50.510Z,7.77
2022-11-18T20:16:24.645Z,3.73
2022-11-18T20:18:56.520Z,6.30
2022-11-18T20:21:24.429Z,6.60
2022-11-18T20:23:54.478Z,6.60
2022-11-18T20:26:24.347Z,5.77
2022-11-18T20:28:56.988Z,10.97
2022-11-18T20:31:25.022Z,5.47
2022-11-18T20:33:53.289Z,10.10
2022-11-18T20:36:21.167Z,7.97
2022-11-18T20:38:53.454Z,8.07
2022-11-18T20:41:21.014Z,5.37
2022-11-18T20:43:48.148Z,5.40
2022-11-18T20:46:20.365Z,5.67
2022-11-18T20:48:48.258Z,7.90
2022-11-18T20:51:16.206Z,11.10
2022-11-18T20:53:44.117Z,4.33
2022-11-18T20:56:16.415Z,6.00
2022-11-18T20:58:43.765Z,4.93
2022-11-18T21:01:22.407Z,6.70
2022-11-18T21:03:54.602Z,5.63
2022-11-18T21:06:24.011Z,5.53
2022-11-18T21:08:55.442Z,10.77
2022-11-18T21:11:22.139Z,12.77
2022-11-18T21:14:07.220Z,10.13
2022-11-18T21:16:33.664Z,10.93
2022-11-18T21:19:00.208Z,8.63
2022-11-18T21:21:44.950Z,10.60
2022-11-18T21:24:13.488Z,9.03
2022-11-18T21:26:40.872Z,6.97
2022-11-18T21:29:09.610Z,6.23
2022-11-18T21:31:36.069Z,8.03
2022-11-18T21:34:02.755Z,9.77
2022-11-18T21:36:29.788Z,8.23
2022-11-18T21:38:58.873Z,9.23
2022-11-18T21:41:26.563Z,5.80
2022-11-18T21:44:08.981Z,7.93
2022-11-18T21:46:37.300Z,6.27
2022-11-18T21:49:05.172Z,6.67
2022-11-18T21:51:32.863Z,5.73
2022-11-18T21:54:00.424Z,8.53
2022-11-18T21:56:30.401Z,6.47
2022-11-18T21:59:01.863Z,7.73
2022-11-18T22:01:30.690Z,3.87
2022-11-18T22:03:59.071Z,7.33
2022-11-18T22:06:29.649Z,6.27
2022-11-18T22:08:56.521Z,4.60
2022-11-18T22:11:23.985Z,6.00
2022-11-18T22:13:51.983Z,9.20
2022-11-18T22:16:20.435Z,3.50
2022-11-18T22:18:51.741Z,5.20
2022-11-18T22:21:21.695Z,4.67
2022-11-18T22:23:48.793Z,7.13
2022-11-18T22:26:20.551Z,7.53
2022-11-18T22:28:51.781Z,7.90
2022-11-18T22:31:20.428Z,9.90
2022-11-18T22:33:47.713Z,8.27
2022-11-18T22:36:16.081Z,10.70
2022-11-18T22:38:43.450Z,11.47
2022-11-18T22:41:50.272Z,14.20
2022-11-18T22:44:17.737Z,12.33
2022-11-18T22:46:45.379Z,13.90
2022-11-18T22:49:12.482Z,12.27
2022-11-18T22:51:39.622Z,7.77
2022-11-18T22:56:56.448Z,9.00
2022-11-18T22:59:23.459Z,8.23
2022-11-18T23:01:51.409Z,8.33
2022-11-18T23:04:17.877Z,7.70
2022-11-18T23:06:44.346Z,5.17
2022-11-18T23:09:10.977Z,7.83
2022-11-18T23:11:55.910Z,9.63
2022-11-18T23:14:22.421Z,8.23
2022-11-18T23:16:48.836Z,9.30
2022-11-18T23:19:17.621Z,5.70
2022-11-18T23:21:44.842Z,7.47
2022-11-18T23:24:15.244Z,7.40
2022-11-18T23:26:42.107Z,8.07
2022-11-18T23:29:10.118Z,6.93
2022-11-18T23:31:36.888Z,7.37
2022-11-18T23:34:03.318Z,6.33
2022-11-18T23:36:29.816Z,5.43
2022-11-18T23:38:56.274Z,7.67
2022-11-18T23:41:22.920Z,5.90
2022-11-18T23:43:51.845Z,7.83
2022-11-18T23:46:19.337Z,6.50
2022-11-18T23:48:46.763Z,10.27
2022-11-18T23:51:15.910Z,10.33
2022-11-18T23:53:43.118Z,7.27
2022-11-18T23:56:15.275Z,5.93
2022-11-18T23:58:44.484Z,7.50
